Time;durP1;ratioP1;P1;durP2;ratioP2;P2;SDS_P1;SDS_P2;PMS_P1;PMS_P2;Temp;Humidity;BMP_temperature;BMP_pressure;BME280_temperature;BME280_humidity;BME280_pressure;Samples;Min_cycle;Max_cycle;Signal;HPM_P1;HPM_P2
2022/03/18 00:00:07;;;;;;;16.80;8.27;;;;;;;;;;5039651;28;20064;-81
2022/03/18 00:02:32;;;;;;;;;;;7.80;99.90;;;;;;5019948;28;20064;-81
2022/03/18 00:04:58;;;;;;;13.48;7.38;;;5.60;99.90;;;;;;5029544;28;19921;-81
2022/03/18 00:07:24;;;;;;;17.00;7.60;;;5.50;99.90;;;;;;5052572;28;20065;-81
2022/03/18 00:09:50;;;;;;;19.52;7.20;;;5.50;99.90;;;;;;5033960;28;20053;-82
2022/03/18 00:12:16;;;;;;;17.08;8.93;;;5.50;99.90;;;;;;5034444;28;20052;-82
2022/03/18 00:14:43;;;;;;;18.80;8.02;;;5.50;99.90;;;;;;5034245;28;20052;-81
2022/03/18 00:17:10;;;;;;;16.20;7.38;;;5.50;99.90;;;;;;5029948;28;20461;-81
2022/03/18 00:19:40;;;;;;;11.73;7.32;;;5.40;99.90;;;;;;5033935;28;20377;-81
2022/03/18 00:22:06;;;;;;;19.73;8.18;;;5.40;99.90;;;;;;5032105;28;20049;-82
2022/03/18 00:24:33;;;;;;;16.90;7.70;;;5.40;99.90;;;;;;5045150;28;20064;-81
2022/03/18 00:27:00;;;;;;;13.30;8.05;;;5.40;99.90;;;;;;5041794;28;20353;-81
2022/03/18 00:29:27;;;;;;;16.48;8.07;;;5.40;99.90;;;;;;5052463;28;20068;-82
2022/03/18 00:31:53;;;;;;;24.10;8.40;;;5.30;99.90;;;;;;5052551;28;20045;-82
2022/03/18 00:34:19;;;;;;;12.05;7.57;;;5.30;99.90;;;;;;5033391;28;20120;-81
2022/03/18 00:36:47;;;;;;;15.02;8.05;;;5.40;99.90;;;;;;5033642;28;20051;-81
2022/03/18 00:39:13;;;;;;;17.45;7.43;;;5.40;99.90;;;;;;5033139;28;20198;-81
2022/03/18 00:41:39;;;;;;;18.52;8.82;;;5.30;99.90;;;;;;5043388;28;20152;-82
2022/03/18 00:44:08;;;;;;;14.25;7.05;;;5.40;99.90;;;;;;5017017;28;20041;-81
2022/03/18 00:46:37;;;;;;;12.45;7.40;;;5.40;99.90;;;;;;5017975;28;20124;-82
2022/03/18 00:52:07;;;;;;;13.70;7.85;;;5.40;99.90;;;;;;5027064;28;20476;-81
2022/03/18 00:54:35;;;;;;;16.83;7.70;;;5.30;99.90;;;;;;5012081;28;20103;-80
2022/03/18 00:57:04;;;;;;;13.93;6.30;;;5.30;99.90;;;;;;5008166;28;20049;-80
2022/03/18 00:59:31;;;;;;;16.15;7.53;;;5.30;99.90;;;;;;5024653;28;20053;-80
2022/03/18 01:02:00;;;;;;;20.15;8.65;;;5.30;99.90;;;;;;5046610;28;20106;-81
2022/03/18 01:04:28;;;;;;;14.98;7.13;;;5.30;99.90;;;;;;5030465;28;20365;-81
2022/03/18 01:06:58;;;;;;;18.42;6.97;;;5.30;99.90;;;;;;5000421;28;20068;-81
2022/03/18 01:09:25;;;;;;;23.42;7.78;;;5.30;99.90;;;;;;4998561;28;20057;-80
2022/03/18 01:11:55;;;;;;;12.80;7.47;;;5.30;99.90;;;;;;5019118;28;20049;-81
2022/03/18 01:14:24;;;;;;;16.33;7.53;;;5.30;99.90;;;;;;5036402;28;20509;-81
2022/03/18 01:16:50;;;;;;;15.90;6.93;;;5.30;99.90;;;;;;5032211;28;20128;-81
2022/03/18 01:19:18;;;;;;;15.95;7.60;;;5.20;99.90;;;;;;5031229;28;20180;-80
2022/03/18 01:21:44;;;;;;;14.13;8.25;;;5.30;99.90;;;;;;5033237;28;20057;-81
2022/03/18 01:24:12;;;;;;;18.10;7.05;;;5.30;99.90;;;;;;5016550;28;20060;-81
2022/03/18 01:26:40;;;;;;;14.43;7.03;;;5.30;99.90;;;;;;5015372;28;20382;-81
2022/03/18 01:29:06;;;;;;;19.80;7.30;;;;;;;;;;5028882;28;20167;-81
2022/03/18 01:31:32;;;;;;;14.48;7.10;;;;;;;;;;5032684;28;20051;-81
2022/03/18 01:33:59;;;;;;;13.45;6.40;;;;;;;;;;5049817;28;20460;-80
2022/03/18 01:36:25;;;;;;;12.63;6.57;;;;;;;;;;5015744;28;20393;-79
2022/03/18 01:38:51;;;;;;;16.55;6.40;;;;;;;;;;5019368;28;20124;-79
2022/03/18 01:41:17;;;;;;;12.40;7.30;;;;;;;;;;5050437;28;20064;-79
2022/03/18 01:43:46;;;;;;;17.27;7.78;;;;;;;;;;5032879;28;20080;-79
2022/03/18 01:46:12;;;;;;;15.35;7.15;;;;;;;;;;5032699;28;20055;-79
2022/03/18 01:48:48;;;;;;;19.80;7.47;;;;;;;;;;5032554;28;20193;-79
2022/03/18 01:51:17;;;;;;;13.10;7.53;;;;;;;;;;5017013;28;20132;-79
2022/03/18 01:53:44;;;;;;;14.05;7.40;;;;;;;;;;5024636;28;20052;-79
2022/03/18 01:56:11;;;;;;;13.00;7.25;;;;;;;;;;5002499;28;20057;-79
2022/03/18 01:58:40;;;;;;;15.90;7.97;;;;;;;;;;5028404;28;20139;-79
2022/03/18 02:01:06;;;;;;;14.90;7.40;;;;;;;;;;5049880;28;20051;-79
2022/03/18 02:03:32;;;;;;;17.30;7.47;;;;;;;;;;5039311;28;20068;-79
2022/03/18 02:05:59;;;;;;;13.10;6.97;;;;;;;;;;5016196;28;20048;-79
2022/03/18 02:08:29;;;;;;;14.25;6.57;;;;;;;;;;5049609;28;20051;-79
2022/03/18 02:10:58;;;;;;;11.68;7.63;;;;;;;;;;5046260;28;20053;-79
2022/03/18 02:13:25;;;;;;;10.52;7.40;;;;;;;;;;5031767;28;20101;-79
2022/03/18 02:15:53;;;;;;;13.27;6.88;;;;;;;;;;5050080;28;20041;-79
2022/03/18 02:18:19;;;;;;;17.10;7.63;;;;;;;;;;5031509;28;20067;-79
2022/03/18 02:20:54;;;;;;;20.33;8.23;;;;;;;;;;5020701;28;20133;-79
2022/03/18 02:23:20;;;;;;;16.48;7.90;;;;;;;;;;5041132;28;20094;-79
2022/03/18 02:25:46;;;;;;;12.70;7.18;;;;;;;;;;5021326;28;20049;-79
2022/03/18 02:28:13;;;;;;;13.82;7.82;;;;;;;;;;5015464;28;20474;-79
2022/03/18 02:30:40;;;;;;;14.77;7.53;;;;;;;;;;5032355;28;20057;-79
2022/03/18 02:33:06;;;;;;;13.98;7.88;;;;;;;;;;5037306;28;20525;-79
2022/03/18 02:35:45;;;;;;;18.23;8.05;;;;;;;;;;5045557;28;20056;-79
2022/03/18 02:38:12;;;;;;;17.58;8.02;;;;;;;;;;5016010;28;20080;-79
2022/03/18 02:40:38;;;;;;;16.60;8.00;;;;;;;;;;5034632;28;20465;-79
2022/03/18 02:43:04;;;;;;;15.25;7.53;;;;;;;;;;5035981;28;20053;-79
2022/03/18 02:45:31;;;;;;;9.63;6.95;;;;;;;;;;5019346;28;20452;-80
2022/03/18 02:48:00;;;;;;;18.92;7.78;;;;;;;;;;5035857;28;20049;-79
2022/03/18 02:50:27;;;;;;;16.48;8.35;;;;;;;;;;5001484;28;20072;-80
2022/03/18 02:52:53;;;;;;;14.05;8.45;;;;;;;;;;5036149;28;20132;-80
2022/03/18 02:55:24;;;;;;;13.35;8.27;;;;;;;;;;5017194;28;20183;-79
2022/03/18 02:57:54;;;;;;;12.77;8.27;;;;;;;;;;5037113;28;20048;-80
2022/03/18 03:00:25;;;;;;;19.77;8.80;;;;;;;;;;5041856;28;20055;-80
2022/03/18 03:02:51;;;;;;;15.02;7.47;;;;;;;;;;5035823;28;20060;-79
2022/03/18 03:08:03;;;;;;;14.40;7.97;;;;;;;;;;5036677;28;20056;-80
2022/03/18 03:10:34;;;;;;;17.38;8.80;;;;;;;;;;5053337;28;20449;-80
2022/03/18 03:13:01;;;;;;;13.20;8.25;;;;;;;;;;5035227;28;20098;-79
2022/03/18 03:15:28;;;;;;;15.63;8.80;;;;;;;;;;5043052;28;20044;-80
2022/03/18 03:17:57;;;;;;;13.85;7.55;;;;;;;;;;5027388;28;20183;-80
2022/03/18 03:20:23;;;;;;;14.48;8.98;;;;;;;;;;5028344;28;20377;-80
2022/03/18 03:22:49;;;;;;;20.20;8.60;;;;;;;;;;5034210;28;20130;-79
2022/03/18 03:25:16;;;;;;;13.32;7.80;;;;;;;;;;5036034;28;20053;-79
2022/03/18 03:27:42;;;;;;;18.77;9.73;;;;;;;;;;5038322;28;20096;-79
2022/03/18 03:30:12;;;;;;;17.80;7.93;;;;;;;;;;5001589;28;20412;-79
2022/03/18 03:32:38;;;;;;;14.00;9.75;;;;;;;;;;5052227;28;20091;-79
2022/03/18 03:35:08;;;;;;;17.50;9.27;;;;;;;;;;5018739;28;20125;-82
2022/03/18 03:37:34;;;;;;;14.63;7.90;;;;;;;;;;5018891;28;20055;-80
2022/03/18 03:40:00;;;;;;;13.55;8.10;;;;;;;;;;5017700;28;20072;-79
2022/03/18 03:42:30;;;;;;;13.65;7.13;;;;;;;;;;5032855;28;20060;-80
2022/03/18 03:45:00;;;;;;;13.20;8.43;;;;;;;;;;5013164;28;20045;-80
2022/03/18 03:47:29;;;;;;;15.98;8.45;;;;;;;;;;5031555;28;20171;-80
2022/03/18 03:50:01;;;;;;;17.88;7.65;;;;;;;;;;5019050;28;20042;-80
2022/03/18 03:52:27;;;;;;;14.35;8.48;;;;;;;;;;5000558;28;20691;-80
2022/03/18 03:54:57;;;;;;;15.63;9.20;;;;;;;;;;5025217;28;20675;-80
2022/03/18 03:57:23;;;;;;;16.73;8.35;;;;;;;;;;5028575;28;20057;-80
2022/03/18 03:59:49;;;;;;;17.50;9.23;;;;;;;;;;5034208;28;20060;-80
2022/03/18 04:02:15;;;;;;;17.20;8.48;;;;;;;;;;5036756;28;20060;-80
2022/03/18 04:04:41;;;;;;;13.88;8.23;;;;;;;;;;5045938;28;20052;-79
2022/03/18 04:07:08;;;;;;;18.92;9.27;;;;;;;;;;5000190;28;20080;-80
2022/03/18 04:09:34;;;;;;;14.60;9.43;;;;;;;;;;5052737;28;20385;-80
2022/03/18 04:12:01;;;;;;;13.88;8.82;;;;;;;;;;5038740;28;20461;-79
2022/03/18 04:14:34;;;;;;;13.05;8.07;;;;;;;;;;5035186;28;20056;-79
2022/03/18 04:17:06;;;;;;;15.20;8.25;;;;;;;;;;5051794;28;20049;-79
2022/03/18 04:19:33;;;;;;;14.37;7.90;;;;;;;;;;5026147;28;20056;-79
2022/03/18 04:22:02;;;;;;;13.15;7.72;;;;;;;;;;5004916;28;20299;-79
2022/03/18 04:24:29;;;;;;;15.05;9.05;;;;;;;;;;5032864;28;20171;-79
2022/03/18 04:26:56;;;;;;;14.32;9.68;;;;;;;;;;5033008;28;20053;-79
2022/03/18 04:29:22;;;;;;;10.45;7.60;;;;;;;;;;5033290;28;20053;-80
2022/03/18 04:31:49;;;;;;;11.48;8.15;;;;;;;;;;5040765;28;20061;-80
2022/03/18 04:34:16;;;;;;;12.98;8.70;;;;;;;;;;5034276;28;20053;-81
2022/03/18 04:36:45;;;;;;;14.52;8.65;;;;;;;;;;5039367;28;20163;-80
2022/03/18 04:39:15;;;;;;;13.02;8.02;;;;;;;;;;5042052;28;20131;-80
2022/03/18 04:41:44;;;;;;;12.32;7.20;;;;;;;;;;5041480;28;20084;-80
2022/03/18 04:44:10;;;;;;;14.13;9.30;;;;;;;;;;5015889;28;20489;-80
2022/03/18 04:46:40;;;;;;;12.63;7.97;;;;;;;;;;5016823;28;20052;-80
2022/03/18 04:49:06;;;;;;;13.65;9.07;;;;;;;;;;5031864;28;20041;-80
2022/03/18 04:51:35;;;;;;;13.88;9.20;;;;;;;;;;5026950;28;20127;-80
2022/03/18 04:54:01;;;;;;;11.40;9.18;;;;;;;;;;5014820;28;20037;-82
2022/03/18 04:59:15;;;;;;;12.40;8.40;;;;;;;;;;5018152;28;20499;-82
2022/03/18 05:01:41;;;;;;;14.82;8.60;;;;;;;;;;5031105;28;20060;-81
2022/03/18 05:04:10;;;;;;;10.70;7.82;;;;;;;;;;5010099;28;20049;-82
2022/03/18 05:06:37;;;;;;;17.95;9.30;;;;;;;;;;5022419;28;20083;-82
2022/03/18 05:09:03;;;;;;;20.38;11.10;;;;;;;;;;5044357;28;20053;-82
2022/03/18 05:11:32;;;;;;;13.45;8.77;;;;;;;;;;5022473;28;20056;-80
2022/03/18 05:13:58;;;;;;;13.68;9.18;;;;;;;;;;5048738;28;20166;-80
2022/03/18 05:16:28;;;;;;;18.48;9.82;;;;;;;;;;5024725;28;20461;-81
2022/03/18 05:18:54;;;;;;;16.15;9.98;;;;;;;;;;5040737;28;20055;-81
2022/03/18 05:21:20;;;;;;;15.85;9.68;;;;;;;;;;5012631;28;20064;-81
2022/03/18 05:23:47;;;;;;;13.10;8.82;;;;;;;;;;5032501;28;20131;-81
2022/03/18 05:26:27;;;;;;;;;;;;;;;;;;;;;
2022/03/18 05:28:57;;;;;;;14.52;9.10;;;;;;;;;;5032909;28;20556;-81
2022/03/18 05:31:25;;;;;;;11.85;8.85;;;;;;;;;;5036678;28;20405;-81
2022/03/18 05:33:54;;;;;;;12.63;9.00;;;;;;;;;;5050285;28;20056;-81
2022/03/18 05:36:20;;;;;;;12.45;10.07;;;;;;;;;;5051437;28;20053;-81
2022/03/18 05:38:46;;;;;;;13.95;9.70;;;;;;;;;;5015514;28;20053;-81
2022/03/18 05:41:12;;;;;;;13.32;9.73;;;;;;;;;;5029506;28;20044;-81
2022/03/18 05:43:39;;;;;;;12.55;9.40;;;;;;;;;;5017307;28;20453;-81
2022/03/18 05:46:06;;;;;;;14.02;8.70;;;;;;;;;;5016218;28;20076;-82
2022/03/18 05:48:32;;;;;;;15.00;8.98;;;;;;;;;;5046069;28;20114;-80
2022/03/18 05:51:00;;;;;;;14.27;9.38;;;;;;;;;;5007806;28;20059;-80
2022/03/18 05:53:30;;;;;;;10.98;9.20;;;;;;;;;;5031544;28;20133;-80
2022/03/18 05:58:42;;;;;;;15.18;9.85;;;;;;;;;;5026088;28;20056;-81
2022/03/18 06:01:10;;;;;;;13.27;8.95;;;;;;;;;;5013453;28;20164;-81
2022/03/18 06:03:40;;;;;;;14.32;9.50;;;;;;;;;;5031157;28;20064;-79
2022/03/18 06:06:07;;;;;;;16.67;10.73;;;;;;;;;;5048863;28;20057;-79
2022/03/18 06:14:24;;;;;;;13.88;9.75;;;;;;;;;;5016903;28;20053;-79
2022/03/18 06:16:52;;;;;;;15.15;10.90;;;;;;;;;;5016731;28;20430;-79
2022/03/18 06:19:19;;;;;;;14.13;10.65;;;;;;;;;;5030301;28;20131;-81
2022/03/18 06:21:47;;;;;;;15.85;10.35;;;;;;;;;;5040975;28;20056;-81
2022/03/18 06:24:14;;;;;;;17.63;11.30;;;;;;;;;;5031823;28;20131;-82
2022/03/18 06:26:40;;;;;;;15.60;10.20;;;;;;;;;;5015449;28;20041;-82
2022/03/18 06:29:09;;;;;;;10.57;9.57;;;;;;;;;;5037018;28;20102;-81
2022/03/18 06:31:36;;;;;;;14.35;10.20;;;;;;;;;;5042194;28;20055;-81
2022/03/18 06:34:03;;;;;;;14.68;10.05;;;;;;;;;;5033905;28;20044;-81
2022/03/18 06:36:29;;;;;;;11.68;8.93;;;;;;;;;;5036597;28;20045;-81
2022/03/18 06:38:55;;;;;;;18.85;11.50;;;;;;;;;;5019190;28;20075;-81
2022/03/18 06:41:23;;;;;;;14.88;11.63;;;;;;;;;;5036903;28;20072;-81
2022/03/18 06:44:08;;;;;;;14.00;10.15;;;;;;;;;;5029049;28;20560;-81
2022/03/18 06:46:35;;;;;;;15.18;10.18;;;;;;;;;;5031284;28;20104;-82
2022/03/18 06:49:01;;;;;;;16.38;11.52;;;;;;;;;;5013373;28;20136;-81
2022/03/18 06:51:28;;;;;;;17.42;12.55;;;;;;;;;;5011749;28;20095;-80
2022/03/18 06:53:57;;;;;;;18.40;11.60;;;;;;;;;;5049527;28;20480;-81
2022/03/18 06:56:23;;;;;;;17.38;11.75;;;;;;;;;;4992495;28;20057;-81
2022/03/18 06:58:49;;;;;;;15.75;11.18;;;;;;;;;;5029601;28;20128;-81
2022/03/18 07:01:15;;;;;;;15.02;10.93;;;;;;;;;;5010749;28;20465;-81
2022/03/18 07:03:41;;;;;;;12.52;10.70;;;;;;;;;;5034797;28;20091;-80
2022/03/18 07:06:07;;;;;;;13.07;10.18;;;;;;;;;;5052089;28;20045;-80
2022/03/18 07:08:38;;;;;;;20.38;11.80;;;;;;;;;;5042729;28;20099;-80
2022/03/18 07:11:04;;;;;;;15.55;11.18;;;;;;;;;;5015629;28;20481;-80
2022/03/18 07:13:33;;;;;;;15.70;10.90;;;;;;;;;;5012660;28;20042;-80
2022/03/18 07:17:54;;;;;;;15.60;11.95;;;;;;;;;;5037216;28;20045;-79
2022/03/18 07:18:45;;;;;;;16.08;10.75;;;;;;;;;;5039174;28;20079;-80
2022/03/18 07:21:11;;;;;;;18.00;11.32;;;;;;;;;;5039715;28;20443;-81
2022/03/18 07:23:37;;;;;;;19.85;12.70;;;;;;;;;;5008141;28;20526;-80
2022/03/18 07:26:03;;;;;;;15.00;10.48;;;;;;;;;;5032520;28;20048;-80
2022/03/18 07:28:29;;;;;;;20.23;12.07;;;;;;;;;;5019811;28;20063;-80
2022/03/18 07:30:59;;;;;;;21.25;12.65;;;;;;;;;;5035859;28;20049;-80
2022/03/18 07:33:25;;;;;;;17.92;12.80;;;;;;;;;;5027182;28;20560;-80
2022/03/18 07:35:51;;;;;;;19.10;11.15;;;;;;;;;;5030554;28;20049;-80
2022/03/18 07:38:20;;;;;;;17.35;11.85;;;;;;;;;;5014816;28;20374;-80
2022/03/18 07:40:46;;;;;;;16.15;11.02;;;;;;;;;;5018109;28;20178;-80
2022/03/18 07:43:13;;;;;;;15.93;10.13;;;;;;;;;;5026523;28;20049;-80
2022/03/18 07:45:39;;;;;;;18.38;11.77;;;;;;;;;;5025117;28;20617;-80
2022/03/18 07:48:09;;;;;;;22.10;11.05;;;;;;;;;;5040569;28;20052;-80
2022/03/18 07:50:36;;;;;;;18.38;12.57;;;;;;;;;;5016895;28;20076;-80
2022/03/18 07:53:07;;;;;;;16.40;10.77;;;;;;;;;;5033334;28;20045;-80
2022/03/18 07:55:35;;;;;;;16.88;12.30;;;5.30;99.90;;;;;;5017985;28;20104;-81
2022/03/18 07:58:02;;;;;;;16.40;11.00;;;6.40;99.90;;;;;;5017293;28;20068;-80
2022/03/18 08:00:28;;;;;;;20.30;10.57;;;6.50;99.90;;;;;;5033085;28;20603;-80
2022/03/18 08:02:54;;;;;;;25.23;13.00;;;6.50;99.90;;;;;;5048339;28;20045;-80
2022/03/18 08:05:21;;;;;;;17.98;10.80;;;6.60;99.90;;;;;;5017593;28;20057;-81
2022/03/18 08:07:46;;;;;;;18.75;10.88;;;6.70;99.90;;;;;;5034890;28;20121;-83
2022/03/18 08:10:14;;;;;;;23.55;12.52;;;6.80;99.90;;;;;;5018861;28;20068;-81
2022/03/18 08:12:42;;;;;;;20.25;11.35;;;6.90;99.90;;;;;;5018427;28;20055;-80
2022/03/18 08:15:13;;;;;;;17.42;11.63;;;7.00;99.90;;;;;;5026357;28;20297;-80
2022/03/18 08:17:43;;;;;;;20.00;12.13;;;7.00;99.90;;;;;;5020691;28;20205;-80
2022/03/18 08:20:11;;;;;;;34.88;11.38;;;7.10;99.90;;;;;;5034593;28;20127;-79
2022/03/18 08:22:37;;;;;;;17.98;10.38;;;;;;;;;;4982110;28;20603;-80
2022/03/18 08:25:04;;;;;;;19.00;10.15;;;;;;;;;;5019124;28;20045;-80
2022/03/18 08:27:30;;;;;;;18.50;9.57;;;7.20;99.90;;;;;;5024233;28;20064;-80
2022/03/18 08:29:59;;;;;;;22.10;10.48;;;7.60;99.90;;;;;;5019665;28;20540;-80
2022/03/18 08:32:27;;;;;;;20.45;10.65;;;7.70;99.90;;;;;;5028332;28;20060;-80
2022/03/18 08:34:53;;;;;;;17.20;9.77;;;7.80;99.90;;;;;;5027787;28;20041;-81
2022/03/18 08:37:56;;;;;;;19.10;10.57;;;7.90;99.90;;;;;;5011438;28;20448;-81
2022/03/18 08:40:05;;;;;;;21.13;10.57;;;8.00;99.90;;;;;;5021748;28;20132;-81
2022/03/18 08:42:34;;;;;;;22.13;9.60;;;8.10;99.90;;;;;;5030923;28;20049;-81
2022/03/18 08:45:02;;;;;;;22.17;11.32;;;8.20;99.90;;;;;;5029830;28;20538;-81
2022/03/18 08:47:31;;;;;;;22.42;9.45;;;8.30;99.90;;;;;;5029284;28;20416;-81
2022/03/18 08:49:57;;;;;;;17.98;10.73;;;8.40;99.90;;;;;;5014664;28;20053;-80
2022/03/18 08:52:26;;;;;;;24.50;9.25;;;8.50;99.90;;;;;;5030138;28;20045;-81
2022/03/18 08:54:52;;;;;;;23.63;10.68;;;8.60;99.90;;;;;;5020123;28;20053;-80
2022/03/18 08:57:18;;;;;;;22.35;9.45;;;8.60;99.90;;;;;;5028025;28;20052;-81
2022/03/18 08:59:43;;;;;;;30.00;11.18;;;8.70;99.90;;;;;;5012691;28;20057;-81
2022/03/18 09:02:09;;;;;;;24.90;11.05;;;8.80;99.90;;;;;;5017420;28;20124;-81
2022/03/18 09:04:36;;;;;;;15.02;9.57;;;;;;;;;;5003965;28;20045;-82
2022/03/18 09:07:03;;;;;;;21.60;9.05;;;;;;;;;;5019091;28;20056;-81
2022/03/18 09:09:29;;;;;;;19.80;8.65;;;;;;;;;;5025016;28;20056;-81
2022/03/18 09:11:55;;;;;;;26.42;10.25;;;;;;;;;;4998291;28;20136;-80
2022/03/18 09:14:29;;;;;;;26.35;8.15;;;;;;;;;;5018688;28;20072;-80
2022/03/18 09:17:00;;;;;;;15.68;8.77;;;8.90;99.90;;;;;;5036238;28;20044;-79
2022/03/18 09:19:31;;;;;;;17.33;8.43;;;9.50;99.90;;;;;;5048407;28;20052;-81
2022/03/18 09:21:57;;;;;;;19.35;8.95;;;;;;;;;;5025113;28;20061;-82
2022/03/18 09:24:30;;;;;;;24.27;9.35;;;;;;;;;;5026968;28;20511;-82
2022/03/18 09:27:00;;;;;;;18.27;8.13;;;;;;;;;;4982235;28;20081;-82
2022/03/18 09:29:30;;;;;;;16.80;7.60;;;;;;;;;;5025386;28;20470;-82
2022/03/18 09:31:56;;;;;;;16.77;8.77;;;;;;;;;;5007806;28;20048;-82
2022/03/18 09:34:24;;;;;;;22.70;8.05;;;;;;;;;;5028371;28;20137;-81
2022/03/18 09:36:52;;;;;;;18.17;7.80;;;;;;;;;;5017271;28;20045;-82
2022/03/18 09:39:21;;;;;;;22.42;8.45;;;;;;;;;;5018577;28;20049;-82
2022/03/18 09:41:52;;;;;;;18.75;8.13;;;;;;;;;;5020595;28;20469;-82
2022/03/18 09:44:18;;;;;;;22.20;7.90;;;;;;;;;;5007119;28;20487;-82
2022/03/18 09:46:52;;;;;;;17.88;8.07;;;;;;;;;;5027024;28;20045;-82
2022/03/18 09:49:20;;;;;;;19.55;9.38;;;;;;;;;;4979357;28;20053;-83
2022/03/18 09:51:47;;;;;;;17.92;8.80;;;;;;;;;;5028543;28;20045;-81
2022/03/18 09:54:16;;;;;;;17.33;9.35;;;;;;;;;;5013065;28;20060;-81
2022/03/18 09:56:43;;;;;;;10.45;7.43;;;;;;;;;;5034973;28;20346;-83
2022/03/18 09:59:10;;;;;;;17.90;6.95;;;;;;;;;;5030235;28;20052;-83
2022/03/18 10:01:43;;;;;;;23.10;7.80;;;;;;;;;;5024190;28;20056;-83
2022/03/18 10:04:11;;;;;;;12.55;7.05;;;;;;;;;;5031055;28;20041;-82
2022/03/18 10:06:38;;;;;;;14.07;7.20;;;;;;;;;;5014387;28;20230;-82
2022/03/18 10:09:07;;;;;;;14.38;6.95;;;;;;;;;;5025011;28;20049;-82
2022/03/18 10:11:36;;;;;;;17.27;7.13;;;;;;;;;;5012795;28;20125;-82
2022/03/18 10:14:20;;;;;;;18.40;7.72;;;;;;;;;;5011040;28;20045;-82
2022/03/18 10:17:02;;;;;;;25.75;8.27;;;;;;;;;;5029921;28;20430;-83
2022/03/18 10:19:28;;;;;;;15.87;6.83;;;;;;;;;;5019056;28;20491;-82
2022/03/18 10:22:06;;;;;;;19.27;6.80;;;9.60;99.90;;;;;;5003287;28;20182;-82
2022/03/18 10:24:36;;;;;;;11.00;6.35;;;;;;;;;;5033894;28;20057;-82
2022/03/18 10:27:16;;;;;;;16.25;7.20;;;;;;;;;;5038175;28;20053;-83
2022/03/18 10:29:50;;;;;;;10.15;5.68;;;;;;;;;;4998102;28;20408;-83
2022/03/18 10:32:17;;;;;;;11.27;5.80;;;;;;;;;;5012806;28;20038;-82
2022/03/18 10:38:00;;;;;;;16.42;6.88;;;;;;;;;;5009697;28;20056;-81
2022/03/18 10:40:36;;;;;;;17.98;6.30;;;;;;;;;;5007951;28;20084;-81
2022/03/18 10:43:03;;;;;;;16.98;6.38;;;;;;;;;;5032629;28;20666;-81
2022/03/18 10:45:30;;;;;;;16.90;6.82;;;;;;;;;;5026312;28;20112;-82
2022/03/18 10:48:13;;;;;;;15.15;7.35;;;11.40;99.90;;;;;;5028248;28;20450;-81
2022/03/18 10:50:40;;;;;;;;;;;;;;;;;;5015820;28;20065;-81
2022/03/18 10:53:12;;;;;;;15.07;7.25;;;;;;;;;;5029826;28;20276;-81
2022/03/18 10:55:45;;;;;;;19.20;6.47;;;;;;;;;;5015381;28;20080;-81
2022/03/18 10:58:18;;;;;;;19.25;7.50;;;;;;;;;;4994785;28;20071;-81
2022/03/18 11:00:51;;;;;;;17.08;8.88;;;;;;;;;;5033815;28;20048;-83
2022/03/18 11:03:18;;;;;;;12.93;6.55;;;;;;;;;;5018058;28;20057;-83
2022/03/18 11:05:47;;;;;;;16.45;9.18;;;;;;;;;;5014583;28;20131;-83
2022/03/18 11:08:21;;;;;;;16.92;7.75;;;;;;;;;;5007488;28;20048;-83
2022/03/18 11:11:07;;;;;;;16.33;7.85;;;;;;;;;;5018027;28;20045;-83
2022/03/18 11:13:53;;;;;;;17.08;6.25;;;;;;;;;;5022130;28;20405;-83
2022/03/18 11:16:22;;;;;;;14.82;6.65;;;;;;;;;;5027036;28;20097;-83
2022/03/18 11:18:49;;;;;;;11.00;5.47;;;;;;;;;;5029627;28;20056;-82
2022/03/18 11:21:18;;;;;;;23.80;6.68;;;;;;;;;;5020723;28;20062;-82
2022/03/18 11:23:45;;;;;;;18.45;6.18;;;;;;;;;;5033794;28;20067;-81
2022/03/18 11:26:14;;;;;;;11.73;5.50;;;;;;;;;;5030797;28;20080;-81
2022/03/18 11:28:40;;;;;;;15.20;6.85;;;;;;;;;;5030951;28;20139;-81
2022/03/18 11:31:07;;;;;;;11.48;6.50;;;;;;;;;;5016602;28;20469;-81
2022/03/18 11:33:34;;;;;;;12.20;6.82;;;;;;;;;;5015095;28;20041;-81
2022/03/18 11:36:07;;;;;;;13.75;7.35;;;;;;;;;;5034230;28;20045;-81
2022/03/18 11:38:53;;;;;;;12.27;6.85;;;;;;;;;;5032504;28;20041;-81
2022/03/18 11:41:19;;;;;;;15.93;6.85;;;;;;;;;;5032317;28;20120;-81
2022/03/18 11:44:04;;;;;;;12.60;6.43;;;;;;;;;;5027046;28;20159;-82
2022/03/18 11:46:31;;;;;;;13.43;6.50;;;;;;;;;;5032152;28;20504;-82
2022/03/18 11:48:58;;;;;;;15.73;6.18;;;;;;;;;;5015085;28;20060;-81
2022/03/18 11:51:31;;;;;;;13.63;5.72;;;;;;;;;;5025987;28;20057;-81
2022/03/18 11:53:59;;;;;;;15.10;6.70;;;;;;;;;;5031942;28;20045;-81
2022/03/18 11:56:45;;;;;;;13.27;5.65;;;;;;;;;;5009807;28;20045;-83
2022/03/18 11:59:24;;;;;;;17.60;5.90;;;;;;;;;;5038578;28;20077;-81
2022/03/18 12:01:54;;;;;;;23.08;6.18;;;;;;;;;;5003995;28;20053;-81
2022/03/18 12:04:39;;;;;;;21.13;5.93;;;;;;;;;;5023449;28;20053;-81
2022/03/18 12:07:12;;;;;;;14.50;5.75;;;;;;;;;;5019627;28;20049;-79
2022/03/18 12:09:57;;;;;;;13.68;5.05;;;;;;;;;;5021389;28;20045;-79
2022/03/18 12:12:30;;;;;;;13.32;5.30;;;;;;;;;;5032958;28;20063;-79
2022/03/18 12:15:00;;;;;;;18.08;5.75;;;;;;;;;;5021998;28;20339;-80
2022/03/18 12:17:27;;;;;;;20.60;6.25;;;;;;;;;;5033952;28;20178;-79
2022/03/18 12:19:54;;;;;;;18.65;6.32;;;;;;;;;;5035759;28;20530;-79
2022/03/18 12:22:22;;;;;;;14.52;5.70;;;;;;;;;;5048655;28;20121;-80
2022/03/18 12:24:49;;;;;;;17.33;6.03;;;;;;;;;;5034550;28;20170;-79
2022/03/18 12:27:22;;;;;;;12.68;6.22;;;;;;;;;;5039768;28;20096;-82
2022/03/18 12:29:48;;;;;;;10.38;4.85;;;;;;;;;;5018530;28;20049;-82
2022/03/18 12:32:16;;;;;;;17.65;4.90;;;;;;;;;;5031208;28;20619;-82
2022/03/18 12:34:48;;;;;;;15.80;5.72;;;;;;;;;;5032860;28;20084;-82
2022/03/18 12:37:17;;;;;;;9.82;4.68;;;;;;;;;;5016353;28;20060;-82
2022/03/18 12:39:44;;;;;;;12.25;4.22;;;;;;;;;;5025007;28;20122;-82
2022/03/18 12:42:12;;;;;;;11.27;4.60;;;;;;;;;;5014683;28;20139;-82
2022/03/18 12:44:38;;;;;;;16.48;4.93;;;;;;;;;;5033071;28;20049;-82
2022/03/18 12:47:05;;;;;;;12.45;4.32;;;;;;;;;;5040590;28;20049;-82
2022/03/18 12:49:32;;;;;;;12.75;5.18;;;;;;;;;;5015920;28;20393;-82
2022/03/18 12:52:02;;;;;;;13.05;4.28;;;;;;;;;;5008183;28;20116;-82
2022/03/18 12:54:29;;;;;;;10.05;4.80;;;;;;;;;;5012871;28;20079;-82
2022/03/18 12:56:56;;;;;;;25.38;5.65;;;;;;;;;;4993951;28;20060;-82
2022/03/18 12:59:22;;;;;;;14.52;5.00;;;;;;;;;;5001871;28;20042;-82
2022/03/18 13:01:55;;;;;;;11.98;5.47;;;;;;;;;;5014664;28;20434;-82
2022/03/18 13:04:22;;;;;;;12.10;4.85;;;;;;;;;;5040776;28;20045;-82
2022/03/18 13:06:52;;;;;;;16.80;6.53;;;;;;;;;;5020207;28;20190;-82
2022/03/18 13:09:18;;;;;;;14.95;5.22;;;;;;;;;;5026634;28;20053;-82
2022/03/18 13:11:45;;;;;;;17.45;5.90;;;;;;;;;;5015896;28;20511;-82
2022/03/18 13:14:12;;;;;;;16.83;6.05;;;;;;;;;;5032538;28;20473;-82
2022/03/18 13:16:42;;;;;;;11.43;5.13;;;;;;;;;;5031416;28;20079;-82
2022/03/18 13:19:09;;;;;;;14.57;5.35;;;;;;;;;;5014832;28;20044;-82
2022/03/18 13:21:38;;;;;;;18.05;4.65;;;;;;;;;;5031693;28;20525;-82
2022/03/18 13:24:05;;;;;;;16.30;5.38;;;;;;;;;;5047201;28;20086;-82
2022/03/18 13:26:31;;;;;;;15.48;5.75;;;;;;;;;;5019685;28;20068;-81
2022/03/18 13:28:57;;;;;;;13.43;4.82;;;;;;;;;;5032312;28;20434;-81
2022/03/18 13:34:08;;;;;;;12.40;3.80;;;;;;;;;;5031218;28;20056;-78
2022/03/18 13:36:39;;;;;;;13.75;4.65;;;;;;;;;;5044655;28;20103;-79
2022/03/18 13:39:21;;;;;;;17.73;4.13;;;;;;;;;;5001398;28;20085;-79
2022/03/18 13:41:51;;;;;;;11.52;4.38;;;;;;;;;;5021991;28;20075;-80
2022/03/18 13:44:18;;;;;;;15.65;4.32;;;;;;;;;;5031510;28;20492;-79
2022/03/18 13:47:00;;;;;;;11.85;4.80;;;;;;;;;;5047008;28;20524;-79
2022/03/18 13:49:26;;;;;;;13.00;5.20;;;;;;;;;;5021252;28;20132;-78
2022/03/18 13:52:00;;;;;;;12.55;4.68;;;;;;;;;;5024310;28;20044;-77
2022/03/18 13:54:26;;;;;;;12.82;5.18;;;;;;;;;;5006133;28;20048;-80
2022/03/18 13:57:02;;;;;;;14.85;4.93;;;;;;;;;;5014452;28;20047;-81
2022/03/18 13:59:29;;;;;;;9.30;4.53;;;;;;;;;;5014297;28;20061;-80
2022/03/18 14:02:00;;;;;;;15.57;4.43;;;;;;;;;;5018691;28;20111;-82
2022/03/18 14:04:27;;;;;;;14.00;5.22;;;;;;;;;;5022318;28;20049;-79
2022/03/18 14:06:54;;;;;;;9.55;4.50;;;;;;;;;;5041152;28;20354;-79
2022/03/18 14:09:30;;;;;;;15.93;5.25;;;;;;;;;;5022544;28;20552;-79
2022/03/18 14:12:14;;;;;;;10.50;4.53;;;;;;;;;;5031343;28;20045;-79
2022/03/18 14:14:41;;;;;;;22.25;5.43;;;;;;;;;;4998969;28;20449;-79
2022/03/18 14:17:07;;;;;;;14.02;4.43;;;;;;;;;;5031941;28;20044;-79
2022/03/18 14:19:44;;;;;;;13.63;5.13;;;;;;;;;;5029641;28;20124;-79
2022/03/18 14:22:10;;;;;;;16.15;5.82;;;;;;;;;;5015507;28;20118;-80
2022/03/18 14:24:37;;;;;;;14.88;4.40;;;;;;;;;;5008484;28;20052;-81
2022/03/18 14:27:07;;;;;;;16.35;3.90;;;;;;;;;;5030478;28;20048;-83
2022/03/18 14:29:38;;;;;;;14.13;4.38;;;;;;;;;;5013460;28;20052;-83
2022/03/18 14:32:07;;;;;;;13.48;4.93;;;;;;;;;;5030438;28;20049;-82
2022/03/18 14:34:36;;;;;;;12.05;4.72;;;;;;;;;;5007087;28;20040;-84
2022/03/18 14:37:02;;;;;;;13.35;4.25;;;;;;;;;;5004167;28;20126;-83
2022/03/18 14:39:29;;;;;;;21.15;6.57;;;;;;;;;;5017302;28;20524;-82